Racecast

Jayden Earl

HR-Hurricanes (VA) · 10 · Compare head to head

Athlete rating 105.8 2026 TF season
Best race 118.0 TF
Races 108
Seasons 4 2022 — 2026

RankedNation #86541·VA #2347·Team #12 ?

Rating scale ?
Speed rating — all races

Track & Field

TF speed rating

2026 TF 104.2

HR-Hurricanes (VA) · Grade 10

Date Meet Event Result Place Rating Difficulty PR/SR Flags
2026-05-30 Va Beach Flames Invite discus 83' 0" -0.023
2026-05-30 Va Beach Flames Invite 400m 59.13 11th · 2nd on team -0.023
2026-05-30 Va Beach Flames Invite 800m 2:26.7 3rd · 2nd on team 103.9 -0.023
2026-05-24 HR Hurricanes CAT 5 Invite discus 86' 5" -0.035
2026-05-24 HR Hurricanes CAT 5 Invite 800m 2:28.66 2nd · 2nd on team 101.3 -0.035
2026-05-24 HR Hurricanes CAT 5 Invite 400m 58.31 4th · 1st on team -0.035
2026-05-16 2026 Technique Relays shot 28' 1" -0.035
2026-05-16 2026 Technique Relays 800m 2:22 1st · 1st on team 106.0 -0.035 SR RSR
2026-05-16 2026 Technique Relays 400m 59.55 8th · 1st on team -0.035
2026-05-09 VA "Legends" T & F Youth Invite discus FOUL -0.033
2026-05-09 VA "Legends" T & F Youth Invite 800m 2:23.31 2nd · 1st on team 105.3 -0.033 SR RSR
2026-05-09 VA "Legends" T & F Youth Invite 400m 59.46 17th · 1st on team -0.033
2026-05-03 Queen Harrison Track Classic - -Youth Section discus 88' 7" -0.033
2026-05-03 Queen Harrison Track Classic - -Youth Section 400m 56.61 4th · 1st on team -0.033 ★PR SR

2025 TF 99.2

HR-Hurricanes (VA) · Grade 9

Date Meet Event Result Place Rating Difficulty PR/SR Flags
2025-06-07 Darius Dixon Invite discus 65-00 -0.032
2025-06-07 Darius Dixon Invite 800m 2:21.12 2nd · 1st on team 107.0 -0.032 ★PR SR
2025-06-07 Darius Dixon Invite 400m 57.4 4th · 1st on team -0.032 PR SR
2025-05-31 Va Beach Flames Invite discus 62' 1.50" -0.023
2025-05-31 Va Beach Flames Invite 800m 2:27.33 3rd · 1st on team 103.8 -0.023
2025-05-31 Va Beach Flames Invite 400m 1:00.91 20th · 1st on team -0.023
2025-05-25 HR Hurricanes CAT 5 Invite discus 81' 10" -0.035
2025-05-25 HR Hurricanes CAT 5 Invite 400m 59.37 8th · 1st on team -0.035
2025-05-25 HR Hurricanes CAT 5 Invite 800m 2:25.78 2nd · 1st on team 103.1 -0.035
2025-05-10 Legends Invitational hosted by Eastend Lightning discus 73-00 -0.030
2025-05-10 Legends Invitational hosted by Eastend Lightning 800m 2:24.46 4th · 1st on team 104.8 -0.030 SR
2025-05-10 Legends Invitational hosted by Eastend Lightning 400m 59.22 6th · 1st on team -0.030
2025-05-04 Queen Harrison Youth Invite discus 56' 4" -0.033
2025-05-04 Queen Harrison Youth Invite 400m 1:00.7 7th · 1st on team -0.033
2025-05-04 Queen Harrison Youth Invite 800m 2:26.55 3rd · 1st on team 102.9 -0.033 SR
2025-04-27 TRACK 757 Classic discus 16.26m -0.029
2025-04-27 TRACK 757 Classic 800m 2:28.62 1st · 1st on team 102.2 -0.029 SR
2025-04-27 TRACK 757 Classic 400m 59.17 5th · 1st on team -0.029 PR SR
2025-03-23 adidas Track Nationals 2025 shot 7.06m -0.036
2025-03-23 adidas Track Nationals 2025 1mile 5:48.79 27th · 1st on team 97.2 -0.036 ★PR SR
2025-03-23 adidas Track Nationals 2025 1600m 5:03.98 27th · 1st on team 110.8 -0.036 ★PR SR RSR
2025-02-22 BWSP Queens and Kings Championships 1500m 5:08.28 2nd · 1st on team 103.5 -0.014 ★PR SR RSR
2025-02-22 BWSP Queens and Kings Championships 800m 2:38.35 8th · 1st on team 97.1 -0.014
2025-02-22 BWSP Queens and Kings Championships 400m 1:02.13 17th · 2nd on team -0.014
2025-02-16 HRH Winter Storm Classic 800m 2:36.09 1st · 1st on team 98.5 -0.014 SR RSR
2025-02-16 HRH Winter Storm Classic 400m 1:01.91 9th · 1st on team -0.014 PR SR
2025-02-16 HRH Winter Storm Classic 1500m 6:02.51 2nd · 1st on team 88.0 -0.014
2025-02-02 Track757 Invite 1500m 5:41.28 3rd · 1st on team 91.6 -0.036
2025-02-02 Track757 Invite 800m 2:36.19 6th · 1st on team 96.7 -0.036 SR RSR
2025-02-02 Track757 Invite 60m 8.12 37th · 1st on team -0.036 ★PR SR
2025-01-18 BWSP Queens and Kings - Meet 2 shot 22' 2" -0.014
2025-01-18 BWSP Queens and Kings - Meet 2 400m 1:02.77 17th · 1st on team -0.014 SR
2025-01-18 BWSP Queens and Kings - Meet 2 800m 2:46.34 5th · 1st on team 92.5 -0.014
2025-01-04 BWSP Queens and Kings - Meet 1 shot 23' 1.50" -0.024
2025-01-04 BWSP Queens and Kings - Meet 1 200m 26.64 12th · 1st on team -0.024 ★PR SR
2025-01-04 BWSP Queens and Kings - Meet 1 400m 1:03.86 12th · 1st on team -0.024 SR
2024-12-08 Coach Miami Presents the Virginia Beast Invitational shot 7.83m -0.036
2024-12-08 Coach Miami Presents the Virginia Beast Invitational 800m 2:40.51 7th · 1st on team 94.2 -0.036 SR RSR
2024-12-08 Coach Miami Presents the Virginia Beast Invitational 1500m 5:38.97 8th · 1st on team 92.3 -0.036 PR SR

2024 TF 110.4

HR-Hurricanes (VA) · Grade 8

Date Meet Event Result Place Rating Difficulty PR/SR Flags
2024-06-29 AAU Region 05 National Qualifier discus 83-02 -0.034
2024-06-29 AAU Region 05 National Qualifier shot 25-05.50 -0.034
2024-06-29 AAU Region 05 National Qualifier 800m 2:22.2 7th · 1st on team -0.034 PR SR
2024-06-29 AAU Region 05 National Qualifier 100m 12.89 23rd · 3rd on team -0.034
2024-06-08 AAU Virginia South District Qualifier shot 24-10.50 -0.029
2024-06-08 AAU Virginia South District Qualifier discus 68-10 -0.029
2024-06-08 AAU Virginia South District Qualifier 100m 12.8 13th · 2nd on team -0.029 ★PR SR
2024-06-08 AAU Virginia South District Qualifier 800m 2:41.79 8th · 1st on team 112.7 -0.029
2024-06-01 VB Flames Invitational discus 83-11.50 -0.023
2024-06-01 VB Flames Invitational shot 25-09.00 -0.023
2024-06-01 VB Flames Invitational 200mh 31.64 4th · 1st on team -0.023
2024-06-01 VB Flames Invitational 800m 2:40.09 7th · 1st on team 114.4 -0.023
2024-05-11 2024 EE Lightning "Legends" Invite discus 71-08 -0.043
2024-05-11 2024 EE Lightning "Legends" Invite shot 27-09.50 -0.043
2024-05-11 2024 EE Lightning "Legends" Invite 800m 2:41.92 7th · 1st on team 110.9 -0.043
2024-05-05 2024 Technique Relays shot 28' 6.50" -0.015
2024-05-05 2024 Technique Relays 1500m 5:49 3rd · 2nd on team 108.1 -0.015 PR SR
2024-04-20 Darius Dixon Invite discus 84-04 -0.019
2024-04-20 Darius Dixon Invite shot 24-04.00 -0.019
2024-04-20 Darius Dixon Invite 200mh 30.55 3rd · 1st on team -0.019 ★PR SR
2024-04-20 Darius Dixon Invite 800m 2:35.95 6th · 2nd on team 118.0 -0.019 PR ★R SR RSR
2024-04-13 Speed Capital Richmond discus 24.97m -0.033
2024-04-13 Speed Capital Richmond shot 7.95m -0.033
2024-04-13 Speed Capital Richmond 800m 2:40.56 6th · 1st on team 113.1 -0.033 PR SR
2024-04-13 Speed Capital Richmond 400m 1:02.33 5th · 2nd on team -0.033 PR SR
2024-03-17 adidas Track Nationals shot 8.27m -0.036
2024-03-17 adidas Track Nationals 800m 2:41.01 26th · 1st on team 112.8 -0.036
2024-03-17 adidas Track Nationals 400m 1:04.51 37th · 1st on team -0.036
2024-03-03 AAU Indoor National Champonships shot 8.32m -0.036
2024-03-03 AAU Indoor National Champonships 400m 1:05.41 63rd · 1st on team -0.036
2024-03-03 AAU Indoor National Champonships 200m 28.02 82nd · 1st on team -0.036 PR SR
2024-03-03 AAU Indoor National Champonships 800m 2:40.64 27th · 1st on team 113.1 -0.036 PR SR
2024-02-24 BWSP Queens and Kings: Meet 4 shot 28' 0.50" -0.024
2024-02-24 BWSP Queens and Kings: Meet 4 55m 7.57 15th · 3rd on team -0.024 ★PR SR
2024-02-24 BWSP Queens and Kings: Meet 4 800m 2:41.26 6th · 1st on team 113.6 -0.024 PR R SR RSR
2024-02-24 BWSP Queens and Kings: Meet 4 400m 1:05.34 13th · 1st on team -0.024
2024-02-18 HRH Winter Storm Classic shot 21' 8.25" -0.024
2024-02-18 HRH Winter Storm Classic 55m 7.9 18th · 5th on team -0.024
2024-02-18 HRH Winter Storm Classic 800m 2:44.71 3rd · 1st on team 111.2 -0.024 PR R SR RSR
2024-02-18 HRH Winter Storm Classic 55m 7.63 10th · 3rd on team -0.024
2024-02-18 HRH Winter Storm Classic 400m 1:03.87 6th · 1st on team -0.024 PR SR
2024-02-03 BWSP Queens and Kings shot DNS -0.014
2024-02-03 BWSP Queens and Kings 800m 2:50.68 11th · 1st on team 108.4 -0.014 R SR RSR
2024-02-03 BWSP Queens and Kings 1500m 6:07.53 9th · 2nd on team 102.7 -0.014
2024-02-03 BWSP Queens and Kings 400m 1:05.26 14th · 1st on team -0.014 PR SR
2024-01-20 BWSP Queens and Kings shot 20' 8.25" -0.014
2024-01-20 BWSP Queens and Kings 800m 2:53.39 8th · 1st on team 106.7 -0.014 SR RSR
2024-01-20 BWSP Queens and Kings 1500m 5:58.84 6th · 2nd on team 105.1 -0.014 PR SR
2024-01-20 BWSP Queens and Kings 200m 28.5 20th · 2nd on team -0.014 PR SR
2024-01-06 BWSP Queens and Kings 400m 1:06.57 18th · 2nd on team -0.024 PR SR
2024-01-06 BWSP Queens and Kings 800m 2:53.79 9th · 2nd on team 105.4 -0.024 SR RSR
2024-01-06 BWSP Queens and Kings 55m 7.61 21st · 3rd on team -0.024 PR SR
2024-01-06 BWSP Queens and Kings 200m 28.8 22nd · 2nd on team -0.024 PR SR

2022 TF 105.8

HR-Hurricanes (VA) · Grade 6

Date Meet Event Result Place Rating Difficulty PR/SR Flags
2022-06-26 AAU Region 05 National Qualifier 800m 2:50.49 7th · 1st on team 107.6 -0.030 PR R SR RSR
2022-06-26 AAU Region 05 National Qualifier 1500m 5:59.8 6th · 1st on team 103.9 -0.030 PR SR